Time;durP1;ratioP1;P1;durP2;ratioP2;P2;SDS_P1;SDS_P2;PMS_P1;PMS_P2;Temp;Humidity;BMP_temperature;BMP_pressure;BME280_temperature;BME280_humidity;BME280_pressure;Samples;Min_cycle;Max_cycle;Signal;HPM_P1;HPM_P2
2023/01/17 00:02:05;;;;;;;4.32;0.40;;;3.30;99.90;;;;;;5030206;28;20292;-65
2023/01/17 00:10:10;;;;;;;3.38;0.10;;;3.20;99.90;;;;;;5011642;28;20163;-64
2023/01/17 00:12:36;;;;;;;1.02;0.10;;;3.20;99.90;;;;;;5010721;28;20044;-63
2023/01/17 00:15:03;;;;;;;2.28;0.08;;;3.20;99.90;;;;;;5012413;28;20434;-62
2023/01/17 00:17:29;;;;;;;1.40;0.10;;;3.40;99.90;;;;;;5011378;28;20047;-63
2023/01/17 01:35:16;;;;;;;8.82;0.40;;;3.50;88.60;;;;;;5015714;28;20151;-63
2023/01/17 01:37:42;;;;;;;5.88;0.32;;;3.40;1.00;;;;;;5013495;28;20044;-65
2023/01/17 01:40:08;;;;;;;7.53;0.30;;;3.50;1.00;;;;;;4990256;28;20817;-64
2023/01/17 01:42:34;;;;;;;7.40;0.30;;;3.50;1.00;;;;;;5012379;28;20045;-64
2023/01/17 01:45:02;;;;;;;10.32;0.50;;;3.50;1.00;;;;;;5013196;28;20097;-64
2023/01/17 01:47:39;;;;;;;7.75;0.50;;;3.60;1.00;;;;;;5013959;28;20068;-65
2023/01/17 01:50:08;;;;;;;6.55;0.35;;;3.40;22.20;;;;;;5012074;28;20037;-64
2023/01/17 01:52:37;;;;;;;5.22;0.20;;;3.60;1.00;;;;;;4983683;28;20265;-64
2023/01/17 01:55:15;;;;;;;5.82;0.30;;;3.50;99.90;;;;;;4997212;28;20056;-64
2023/01/17 01:57:45;;;;;;;6.53;0.40;;;3.50;99.90;;;;;;5013586;28;20056;-64
2023/01/17 02:00:28;;;;;;;9.63;0.30;;;3.70;99.90;;;;;;5030429;28;20112;-64
2023/01/17 02:02:56;;;;;;;6.90;0.47;;;3.60;99.90;;;;;;5030423;28;21248;-65
2023/01/17 02:05:25;;;;;;;3.83;0.63;;;3.70;99.90;;;;;;5031563;28;20051;-63
2023/01/17 02:08:22;;;;;;;6.00;0.50;;;3.80;99.90;;;;;;4996500;28;20700;-64
2023/01/17 02:10:49;;;;;;;6.82;0.30;;;3.80;99.90;;;;;;4992581;28;20049;-65
2023/01/17 02:13:18;;;;;;;6.85;0.38;;;3.80;99.90;;;;;;5012950;28;20646;-63
2023/01/17 02:15:56;;;;;;;5.95;0.45;;;3.60;99.90;;;;;;4995661;28;20444;-63
2023/01/17 02:18:43;;;;;;;7.53;0.35;;;3.40;99.90;;;;;;5012617;28;20079;-64
2023/01/17 02:21:09;;;;;;;7.00;0.65;;;3.20;99.90;;;;;;5012928;28;20040;-64
2023/01/17 02:23:38;;;;;;;3.75;0.10;;;3.20;99.90;;;;;;4995853;28;20040;-64
2023/01/17 02:26:18;;;;;;;6.32;0.20;;;3.20;99.90;;;;;;5000039;28;20037;-65
2023/01/17 02:28:53;;;;;;;6.00;0.30;;;3.20;99.90;;;;;;5030901;28;20037;-64
2023/01/17 02:31:30;;;;;;;3.85;0.20;;;3.30;1.00;;;;;;5012448;28;20395;-65
2023/01/17 02:34:15;;;;;;;9.05;0.40;;;3.40;1.00;;;;;;5011812;28;20234;-63
2023/01/17 02:36:49;;;;;;;9.10;0.50;;;3.30;75.90;;;;;;5029983;28;20049;-63
2023/01/17 02:39:23;;;;;;;13.60;0.50;;;3.50;73.20;;;;;;4995679;28;20132;-63
2023/01/17 02:42:03;;;;;;;10.07;0.57;;;3.50;99.90;;;;;;5030298;28;20045;-64
2023/01/17 02:44:29;;;;;;;18.10;0.60;;;3.60;37.40;;;;;;5012011;28;20735;-64
2023/01/17 02:46:56;;;;;;;14.45;0.77;;;3.70;1.00;;;;;;5012437;28;20045;-63
2023/01/17 02:49:27;;;;;;;14.88;0.68;;;3.80;17.40;;;;;;4994729;28;20050;-63
2023/01/17 02:52:13;;;;;;;10.55;0.60;;;3.80;50.30;;;;;;5011890;28;20126;-63
2023/01/17 02:55:00;;;;;;;14.10;0.60;;;3.70;93.50;;;;;;4984772;28;20488;-63
2023/01/17 02:57:31;;;;;;;16.05;0.75;;;3.90;1.00;;;;;;5012271;28;20107;-63
2023/01/17 03:00:12;;;;;;;10.50;0.50;;;3.90;1.00;;;;;;5012189;28;20037;-63
2023/01/17 03:02:50;;;;;;;13.30;0.50;;;4.00;99.90;;;;;;5011592;28;20066;-63
2023/01/17 03:05:22;;;;;;;7.90;0.40;;;3.90;99.90;;;;;;5012719;28;20071;-63
2023/01/17 03:07:50;;;;;;;7.72;0.57;;;4.00;99.90;;;;;;5011800;28;20045;-64
2023/01/17 03:10:17;;;;;;;10.32;0.57;;;4.00;99.90;;;;;;4982110;28;20044;-63
2023/01/17 03:12:44;;;;;;;4.95;0.40;;;4.00;99.90;;;;;;5010669;28;20060;-65
2023/01/17 03:15:11;;;;;;;5.63;0.30;;;4.10;99.90;;;;;;5029686;28;20045;-63
2023/01/17 03:17:41;;;;;;;6.80;0.30;;;4.10;99.90;;;;;;5029523;28;20039;-64
2023/01/17 03:20:08;;;;;;;11.63;1.30;;;4.10;99.90;;;;;;5011027;28;20053;-65
2023/01/17 03:22:33;;;;;;;13.57;0.60;;;4.20;99.90;;;;;;5028878;28;20045;-64
2023/01/17 03:24:59;;;;;;;10.05;0.55;;;4.10;99.90;;;;;;4995205;28;20502;-64
2023/01/17 03:27:25;;;;;;;10.10;0.70;;;4.00;99.90;;;;;;5012369;28;20199;-64
2023/01/17 03:29:50;;;;;;;8.48;0.43;;;4.00;99.90;;;;;;5029337;28;20053;-64
2023/01/17 03:32:16;;;;;;;10.48;0.50;;;4.00;99.90;;;;;;5029635;28;20048;-63
2023/01/17 03:34:42;;;;;;;7.63;0.30;;;4.10;99.90;;;;;;4979092;28;20471;-63
2023/01/17 03:37:07;;;;;;;5.35;0.93;;;4.10;99.90;;;;;;5028967;28;20094;-63
2023/01/17 03:39:33;;;;;;;7.65;0.45;;;4.10;99.90;;;;;;5010880;28;20557;-63
2023/01/17 03:41:59;;;;;;;10.38;0.70;;;4.10;99.90;;;;;;5011763;28;20106;-63
2023/01/17 03:44:24;;;;;;;7.32;0.30;;;4.10;99.90;;;;;;4994446;28;20053;-64
2023/01/17 03:46:50;;;;;;;8.80;1.00;;;4.00;99.90;;;;;;5029677;28;20084;-63
2023/01/17 03:49:15;;;;;;;11.02;0.60;;;4.10;99.90;;;;;;5010913;28;20044;-63
2023/01/17 03:51:41;;;;;;;6.43;0.30;;;4.10;99.90;;;;;;4995367;28;20842;-64
2023/01/17 03:54:07;;;;;;;8.15;0.40;;;4.10;99.90;;;;;;5030270;28;20098;-63
2023/01/17 03:56:33;;;;;;;9.48;0.40;;;4.10;99.90;;;;;;5032827;28;20110;-63
2023/01/17 03:58:58;;;;;;;5.47;0.45;;;4.20;99.90;;;;;;5034499;28;20450;-64
2023/01/17 04:01:24;;;;;;;12.48;0.50;;;4.10;99.90;;;;;;5014683;28;20037;-63
2023/01/17 04:03:50;;;;;;;8.85;0.40;;;3.90;99.90;;;;;;5015318;28;20380;-64
2023/01/17 04:06:16;;;;;;;9.35;0.70;;;3.80;1.00;;;;;;4983848;28;20553;-63
2023/01/17 04:08:41;;;;;;;8.38;0.77;;;3.80;99.90;;;;;;5032936;28;20049;-64
2023/01/17 04:11:07;;;;;;;6.72;0.40;;;3.80;1.00;;;;;;5014562;28;20050;-63
2023/01/17 04:13:33;;;;;;;8.80;0.60;;;3.80;99.90;;;;;;5033763;28;20466;-63
2023/01/17 04:15:58;;;;;;;7.68;0.52;;;3.90;99.90;;;;;;5033221;28;20526;-64
2023/01/17 04:18:24;;;;;;;7.22;0.28;;;3.80;99.90;;;;;;4982126;28;20037;-64
2023/01/17 04:20:50;;;;;;;5.50;0.20;;;3.50;99.90;;;;;;5032228;28;20037;-64
2023/01/17 04:23:16;;;;;;;3.95;0.10;;;3.40;99.90;;;;;;5011517;28;20099;-63
2023/01/17 04:25:42;;;;;;;4.85;0.30;;;3.40;99.90;;;;;;4996828;28;20483;-64
2023/01/17 04:28:09;;;;;;;6.72;0.30;;;3.40;99.90;;;;;;5034256;28;20040;-63
2023/01/17 04:30:35;;;;;;;6.15;0.30;;;3.30;99.90;;;;;;4994416;28;20081;-63
2023/01/17 04:33:01;;;;;;;6.15;0.40;;;3.30;99.90;;;;;;5012614;28;20053;-63
2023/01/17 04:35:29;;;;;;;6.55;0.30;;;3.20;99.90;;;;;;5010511;28;20054;-65
2023/01/17 04:37:55;;;;;;;10.65;0.32;;;3.20;1.00;;;;;;5013296;28;20049;-64
2023/01/17 04:40:21;;;;;;;7.93;0.38;;;3.30;1.00;;;;;;4993086;28;20056;-63
2023/01/17 04:42:47;;;;;;;6.00;0.30;;;3.30;1.00;;;;;;5013577;28;20558;-63
2023/01/17 04:45:13;;;;;;;6.70;0.30;;;3.30;1.00;;;;;;5012640;28;20042;-64
2023/01/17 04:47:39;;;;;;;10.02;0.50;;;3.30;1.00;;;;;;4994827;28;20045;-63
2023/01/17 04:50:06;;;;;;;10.60;0.55;;;3.40;1.00;;;;;;5009494;28;20045;-65
2023/01/17 04:52:32;;;;;;;9.90;0.63;;;3.40;1.00;;;;;;4993998;28;20045;-63
2023/01/17 04:54:57;;;;;;;14.15;0.65;;;3.40;99.90;;;;;;5011785;28;20044;-63
2023/01/17 04:57:24;;;;;;;14.38;1.00;;;3.40;99.90;;;;;;5011521;28;20033;-63
2023/01/17 04:59:49;;;;;;;20.20;1.42;;;3.40;1.00;;;;;;5011600;28;20053;-63
2023/01/17 05:02:15;;;;;;;7.18;0.47;;;3.30;1.00;;;;;;5010259;28;20048;-63
2023/01/17 05:04:41;;;;;;;11.40;0.88;;;3.30;99.90;;;;;;5010594;28;20037;-64
2023/01/17 05:07:07;;;;;;;14.77;0.60;;;3.20;1.00;;;;;;5008929;28;20616;-64
2023/01/17 05:09:32;;;;;;;6.80;0.40;;;3.20;1.00;;;;;;5011654;28;20378;-63
2023/01/17 05:11:58;;;;;;;4.47;0.30;;;3.10;99.90;;;;;;5011012;28;20589;-65
2023/01/17 05:14:25;;;;;;;10.57;0.40;;;3.10;99.90;;;;;;5012019;28;20056;-64
2023/01/17 05:16:55;;;;;;;6.88;0.30;;;3.10;99.90;;;;;;5010390;28;20045;-64
2023/01/17 05:19:25;;;;;;;4.97;0.50;;;3.00;99.90;;;;;;5012019;28;20140;-64
2023/01/17 05:21:51;;;;;;;7.05;0.57;;;2.90;99.90;;;;;;5010211;28;20179;-65
2023/01/17 05:24:17;;;;;;;9.90;0.25;;;2.90;99.90;;;;;;4993440;28;20048;-65
2023/01/17 05:26:44;;;;;;;7.70;0.35;;;2.80;99.90;;;;;;5009692;28;20095;-64
2023/01/17 05:29:10;;;;;;;11.85;0.70;;;2.70;99.90;;;;;;5010962;28;20037;-64
2023/01/17 05:31:35;;;;;;;10.27;0.60;;;2.70;99.90;;;;;;4975825;28;20064;-64
2023/01/17 05:34:01;;;;;;;5.28;0.38;;;2.80;99.90;;;;;;5010056;28;20312;-64
2023/01/17 05:36:27;;;;;;;5.20;0.40;;;2.80;99.90;;;;;;5009399;28;20052;-64
2023/01/17 05:38:53;;;;;;;8.13;0.75;;;2.70;99.90;;;;;;5011375;28;20426;-64
2023/01/17 05:41:19;;;;;;;8.50;0.30;;;2.60;99.90;;;;;;4980968;28;20124;-65
2023/01/17 05:43:44;;;;;;;9.57;1.33;;;2.40;99.90;;;;;;4994380;28;20116;-64
2023/01/17 05:46:10;;;;;;;7.45;0.30;;;2.40;99.90;;;;;;4991916;28;20131;-64
2023/01/17 05:48:36;;;;;;;5.53;0.30;;;2.30;99.90;;;;;;4993995;28;20045;-64
2023/01/17 05:51:01;;;;;;;7.70;0.30;;;2.20;99.90;;;;;;5009604;28;20107;-64
2023/01/17 05:53:27;;;;;;;4.82;0.30;;;2.10;99.90;;;;;;5008775;28;20045;-64
2023/01/17 05:55:53;;;;;;;7.07;0.30;;;2.00;1.00;;;;;;4981562;28;20221;-64
2023/01/17 05:58:21;;;;;;;6.78;0.30;;;2.00;99.90;;;;;;5009921;28;20041;-64
2023/01/17 06:00:47;;;;;;;9.77;0.30;;;2.00;99.90;;;;;;5011693;28;20041;-62
2023/01/17 06:03:14;;;;;;;5.28;0.40;;;2.00;1.00;;;;;;5010984;28;20108;-63
2023/01/17 06:05:40;;;;;;;8.23;0.35;;;2.10;1.00;;;;;;5010720;28;20056;-62
2023/01/17 06:08:06;;;;;;;7.60;0.40;;;2.00;1.00;;;;;;5012861;28;20179;-62
2023/01/17 06:10:32;;;;;;;5.07;0.43;;;2.00;1.00;;;;;;4993564;28;20045;-63
2023/01/17 06:13:05;;;;;;;7.00;0.40;;;1.90;1.00;;;;;;5027232;28;20045;-63
2023/01/17 06:15:33;;;;;;;10.20;0.30;;;1.90;1.00;;;;;;5009615;28;20136;-64
2023/01/17 06:18:06;;;;;;;5.95;0.20;;;1.90;1.00;;;;;;5009081;28;20341;-63
2023/01/17 06:20:33;;;;;;;7.57;0.50;;;2.00;99.90;;;;;;5009158;28;20523;-63
2023/01/17 06:23:06;;;;;;;2.38;0.20;;;2.00;99.90;;;;;;5011252;28;20561;-64
2023/01/17 06:25:37;;;;;;;4.25;0.10;;;2.10;99.90;;;;;;5009498;28;20037;-63
2023/01/17 06:28:03;;;;;;;4.65;0.30;;;2.00;99.90;;;;;;5011921;28;20629;-62
2023/01/17 06:30:29;;;;;;;4.97;0.20;;;2.00;99.90;;;;;;5022494;28;20064;-64
2023/01/17 06:32:55;;;;;;;4.30;0.40;;;1.90;99.90;;;;;;5014362;28;20048;-63
2023/01/17 06:35:21;;;;;;;7.43;0.38;;;1.80;1.00;;;;;;5014815;28;20402;-63
2023/01/17 06:37:52;;;;;;;5.53;0.22;;;1.80;1.00;;;;;;5014663;28;20414;-64
2023/01/17 06:40:19;;;;;;;6.88;0.38;;;1.70;1.00;;;;;;5017369;28;20076;-62
2023/01/17 06:42:44;;;;;;;5.65;0.20;;;1.60;1.00;;;;;;5018198;28;20060;-63
2023/01/17 06:45:10;;;;;;;8.88;0.50;;;1.60;1.00;;;;;;5013239;28;20521;-63
2023/01/17 06:47:40;;;;;;;4.43;0.20;;;1.60;1.00;;;;;;4987240;28;20341;-64
2023/01/17 06:50:08;;;;;;;5.70;0.30;;;1.50;1.00;;;;;;5029940;28;20183;-64
2023/01/17 06:52:34;;;;;;;8.20;0.30;;;1.50;1.00;;;;;;4997876;28;20108;-65
2023/01/17 06:55:00;;;;;;;5.28;0.40;;;1.40;1.00;;;;;;5030941;28;20128;-64
2023/01/17 06:57:25;;;;;;;4.50;0.30;;;1.40;1.00;;;;;;4982946;28;20131;-64
2023/01/17 06:59:51;;;;;;;7.50;0.30;;;1.40;1.00;;;;;;5013512;28;20132;-64
2023/01/17 07:02:17;;;;;;;8.98;0.63;;;1.30;1.00;;;;;;5033635;28;20821;-65
2023/01/17 07:04:42;;;;;;;3.63;0.20;;;1.30;1.00;;;;;;4999104;28;20037;-63
2023/01/17 07:07:08;;;;;;;3.70;0.50;;;1.30;1.00;;;;;;5014030;28;20090;-64
2023/01/17 07:09:34;;;;;;;5.60;0.20;;;1.30;1.00;;;;;;5012727;28;20120;-63
2023/01/17 07:12:00;;;;;;;6.43;0.35;;;1.20;1.00;;;;;;5031019;28;20037;-63
2023/01/17 07:14:29;;;;;;;3.55;0.32;;;1.10;1.00;;;;;;5032729;28;20098;-64
2023/01/17 07:16:55;;;;;;;7.80;0.40;;;1.00;1.00;;;;;;5015044;28;20131;-65
2023/01/17 07:19:21;;;;;;;7.78;0.40;;;1.00;1.00;;;;;;5014399;28;20052;-64
2023/01/17 07:21:51;;;;;;;8.52;0.40;;;0.90;1.00;;;;;;4998122;28;20458;-64
2023/01/17 07:24:18;;;;;;;7.28;0.30;;;1.00;1.00;;;;;;5032477;28;20041;-65
2023/01/17 07:26:47;;;;;;;4.90;0.40;;;1.00;1.00;;;;;;5031652;28;20340;-63
2023/01/17 07:29:12;;;;;;;4.90;0.30;;;0.90;1.00;;;;;;5014216;28;20475;-63
2023/01/17 07:31:39;;;;;;;10.45;0.40;;;1.00;1.00;;;;;;5011739;28;20144;-62
2023/01/17 07:34:05;;;;;;;8.07;0.50;;;0.90;1.00;;;;;;5032325;28;20087;-64
2023/01/17 07:36:31;;;;;;;6.13;0.70;;;0.90;1.00;;;;;;4983548;28;20041;-63
2023/01/17 07:38:56;;;;;;;4.82;0.20;;;1.00;1.00;;;;;;5014664;28;20657;-63
2023/01/17 07:41:22;;;;;;;6.80;0.47;;;1.00;1.00;;;;;;5015287;28;20337;-61
2023/01/17 07:43:48;;;;;;;4.75;0.20;;;1.00;1.00;;;;;;5032431;28;20060;-63
2023/01/17 07:46:14;;;;;;;5.10;0.30;;;1.00;1.00;;;;;;5029696;28;20048;-63
2023/01/17 07:48:40;;;;;;;4.35;0.40;;;1.00;1.00;;;;;;5031971;28;20402;-63
2023/01/17 07:51:07;;;;;;;8.95;0.20;;;1.00;1.00;;;;;;5031868;28;20032;-62
2023/01/17 07:53:34;;;;;;;7.13;0.30;;;1.10;99.90;;;;;;5033192;28;20128;-63
2023/01/17 07:56:05;;;;;;;3.15;0.43;;;1.00;1.00;;;;;;5016283;28;20228;-63
2023/01/17 07:58:31;;;;;;;5.03;0.30;;;1.10;99.90;;;;;;5034984;28;20103;-62
2023/01/17 08:01:05;;;;;;;4.95;0.32;;;1.10;99.90;;;;;;5007981;28;20044;-63
2023/01/17 08:03:34;;;;;;;5.70;0.40;;;1.20;99.90;;;;;;5016773;28;20045;-63
2023/01/17 08:06:00;;;;;;;3.35;0.30;;;1.30;1.00;;;;;;4995306;28;20083;-63
2023/01/17 08:08:27;;;;;;;5.80;0.20;;;1.40;99.90;;;;;;4987325;28;20384;-64
2023/01/17 08:10:53;;;;;;;4.13;0.20;;;1.60;99.90;;;;;;5029103;28;20311;-65
2023/01/17 08:13:20;;;;;;;3.67;0.10;;;1.80;99.90;;;;;;4994893;28;20040;-63
2023/01/17 08:15:48;;;;;;;5.60;0.20;;;2.00;99.90;;;;;;5010303;28;20095;-63
2023/01/17 08:18:13;;;;;;;4.80;0.30;;;2.10;99.90;;;;;;5013421;28;20044;-64
2023/01/17 08:20:39;;;;;;;5.30;0.30;;;2.20;1.00;;;;;;4997044;28;20052;-64
2023/01/17 08:23:05;;;;;;;4.60;0.20;;;2.20;1.00;;;;;;4995210;28;20048;-63
2023/01/17 08:25:32;;;;;;;4.88;0.10;;;2.20;1.00;;;;;;4984018;28;20047;-64
2023/01/17 08:27:58;;;;;;;6.35;0.40;;;2.20;1.00;;;;;;5016627;28;20045;-63
2023/01/17 08:30:24;;;;;;;6.38;0.30;;;2.10;1.00;;;;;;5015752;28;20052;-63
2023/01/17 08:32:50;;;;;;;5.80;0.20;;;2.20;1.00;;;;;;5032024;28;20051;-63
2023/01/17 08:35:16;;;;;;;5.35;0.20;;;2.30;1.00;;;;;;5012857;28;20048;-62
2023/01/17 08:37:41;;;;;;;3.75;0.17;;;2.40;1.00;;;;;;5014095;28;20065;-63
2023/01/17 08:40:09;;;;;;;3.20;0.20;;;2.40;1.00;;;;;;5032873;28;20037;-64
2023/01/17 08:42:38;;;;;;;2.72;0.20;;;1.90;1.00;;;;;;5017712;28;20494;-64
2023/01/17 08:45:06;;;;;;;2.22;0.10;;;1.70;5.10;;;;;;5014452;28;20139;-63
2023/01/17 08:47:33;;;;;;;1.23;0.10;;;1.60;22.50;;;;;;4996820;28;20036;-64
2023/01/17 08:49:59;;;;;;;3.05;0.10;;;1.70;24.80;;;;;;5014672;28;20040;-65
2023/01/17 08:52:28;;;;;;;5.25;0.10;;;1.60;36.60;;;;;;5033724;28;20045;-64
2023/01/17 08:54:54;;;;;;;1.60;0.10;;;1.60;87.00;;;;;;5017868;28;20357;-64
2023/01/17 08:57:21;;;;;;;2.80;0.10;;;1.50;70.70;;;;;;5035818;28;20502;-65
2023/01/17 08:59:47;;;;;;;2.70;0.20;;;1.50;24.60;;;;;;5017610;28;20110;-62
2023/01/17 09:02:17;;;;;;;2.72;0.10;;;1.60;62.90;;;;;;5017392;28;20049;-63
2023/01/17 09:04:47;;;;;;;3.90;0.10;;;1.60;90.60;;;;;;5036566;28;20033;-63
2023/01/17 09:07:14;;;;;;;2.83;0.10;;;1.60;67.10;;;;;;5036528;28;20094;-63
2023/01/17 09:09:40;;;;;;;1.58;0.15;;;1.70;30.80;;;;;;5018692;28;20321;-63
2023/01/17 09:12:05;;;;;;;3.63;0.10;;;1.70;37.50;;;;;;5035634;28;20071;-62
2023/01/17 09:14:32;;;;;;;4.70;0.35;;;1.90;58.10;;;;;;5017242;28;20316;-62
2023/01/17 09:16:58;;;;;;;2.88;0.13;;;2.00;55.60;;;;;;5017933;28;20056;-62
2023/01/17 09:19:24;;;;;;;5.15;0.20;;;2.10;88.30;;;;;;5001416;28;20150;-63
2023/01/17 09:21:49;;;;;;;2.70;0.10;;;2.30;99.90;;;;;;5017875;28;20041;-62
2023/01/17 09:24:15;;;;;;;2.28;0.20;;;2.70;70.20;;;;;;5001835;28;20037;-62
2023/01/17 09:26:41;;;;;;;4.07;0.50;;;2.90;10.10;;;;;;5017631;28;20074;-62
2023/01/17 09:29:07;;;;;;;2.30;0.10;;;3.00;1.00;;;;;;4985058;28;20434;-62
2023/01/17 09:31:33;;;;;;;3.17;0.10;;;3.20;1.00;;;;;;5016996;28;20526;-62
2023/01/17 09:33:59;;;;;;;6.10;0.20;;;3.30;1.00;;;;;;5035597;28;20037;-63
2023/01/17 09:36:27;;;;;;;6.03;0.30;;;3.40;1.00;;;;;;5017958;28;20047;-63
2023/01/17 09:39:01;;;;;;;5.50;0.30;;;3.40;1.00;;;;;;5035854;28;20047;-63
2023/01/17 09:41:32;;;;;;;6.18;0.20;;;3.40;1.00;;;;;;5018073;28;21181;-62
2023/01/17 09:44:06;;;;;;;3.90;0.28;;;3.30;99.90;;;;;;5036118;28;20040;-65
2023/01/17 09:46:46;;;;;;;4.03;0.30;;;3.40;1.00;;;;;;5036632;28;20047;-63
2023/01/17 09:49:42;;;;;;;4.53;0.20;;;3.30;99.90;;;;;;5015770;28;20041;-62
2023/01/17 09:52:16;;;;;;;4.45;0.20;;;3.30;1.00;;;;;;5003385;28;20052;-62
2023/01/17 09:54:45;;;;;;;7.18;0.43;;;3.40;1.00;;;;;;5034071;28;20041;-61
2023/01/17 09:57:29;;;;;;;4.55;0.43;;;3.60;1.00;;;;;;4994516;28;20917;-62
2023/01/17 10:00:11;;;;;;;2.72;0.20;;;3.60;1.00;;;;;;5032624;28;20246;-62
2023/01/17 10:02:49;;;;;;;6.07;0.30;;;3.50;99.90;;;;;;5032418;28;20494;-63
2023/01/17 10:05:35;;;;;;;5.18;0.30;;;3.50;99.90;;;;;;5014593;28;20120;-63
2023/01/17 10:08:21;;;;;;;8.43;0.30;;;3.70;99.90;;;;;;5013968;28;20126;-63
2023/01/17 10:11:23;;;;;;;3.42;0.50;;;3.90;99.90;;;;;;5021550;28;20051;-63
2023/01/17 10:14:14;;;;;;;2.83;0.20;;;4.00;99.90;;;;;;5032032;28;20138;-63
2023/01/17 10:17:12;;;;;;;2.15;0.20;;;4.00;99.90;;;;;;5032468;28;20032;-63
2023/01/17 10:20:05;;;;;;;1.27;0.10;;;4.10;99.90;;;;;;4984993;28;20111;-64
2023/01/17 10:23:11;;;;;;;1.52;0.00;;;4.50;99.90;;;;;;4997230;28;20049;-64
2023/01/17 10:25:41;;;;;;;0.60;0.00;;;5.20;99.90;;;;;;5032661;28;20044;-64
2023/01/17 10:28:19;;;;;;;0.57;0.10;;;5.70;1.00;;;;;;5014282;28;20109;-63
2023/01/17 10:31:09;;;;;;;0.60;0.00;;;6.00;99.90;;;;;;5013721;28;20522;-63
2023/01/17 10:33:38;;;;;;;1.90;0.10;;;5.50;99.90;;;;;;5014351;28;20116;-63
2023/01/17 10:36:14;;;;;;;0.40;0.00;;;5.20;99.90;;;;;;5013586;28;20037;-64
2023/01/17 10:38:45;;;;;;;1.02;0.00;;;5.40;99.90;;;;;;5013990;28;20045;-64
2023/01/17 10:41:35;;;;;;;2.05;0.10;;;5.30;99.90;;;;;;5031221;28;20064;-64
2023/01/17 10:44:34;;;;;;;2.85;0.10;;;5.40;99.90;;;;;;4999002;28;20458;-63
2023/01/17 10:47:13;;;;;;;0.35;0.00;;;5.00;99.90;;;;;;5031348;28;20137;-63
2023/01/17 10:49:47;;;;;;;1.23;0.00;;;4.40;99.90;;;;;;5014087;28;20037;-63
2023/01/17 10:52:22;;;;;;;0.80;0.00;;;4.30;99.90;;;;;;5030856;28;20110;-63
2023/01/17 10:54:55;;;;;;;2.47;0.30;;;4.50;99.90;;;;;;5013909;28;20041;-63
2023/01/17 10:57:26;;;;;;;1.17;0.08;;;4.70;99.90;;;;;;5014819;28;20083;-63
2023/01/17 10:59:57;;;;;;;2.05;0.20;;;5.00;99.90;;;;;;4997784;28;20040;-62
2023/01/17 11:02:29;;;;;;;1.83;0.20;;;5.40;99.90;;;;;;5013228;28;20124;-63
2023/01/17 11:04:56;;;;;;;2.83;0.20;;;5.60;99.90;;;;;;4996641;28;20747;-63
2023/01/17 11:07:26;;;;;;;2.75;0.10;;;5.10;99.90;;;;;;5013989;28;20135;-63
2023/01/17 11:09:57;;;;;;;2.55;0.10;;;4.80;99.90;;;;;;5014198;28;20077;-63
2023/01/17 11:12:36;;;;;;;1.92;0.30;;;5.20;99.90;;;;;;5031833;28;20048;-63
2023/01/17 11:15:02;;;;;;;1.45;0.10;;;5.90;99.90;;;;;;4992130;28;20059;-62
2023/01/17 11:17:29;;;;;;;4.15;0.10;;;6.20;99.90;;;;;;5032019;28;20454;-63
2023/01/17 11:20:11;;;;;;;1.38;0.10;;;6.00;99.90;;;;;;5031563;28;20052;-63
2023/01/17 11:22:37;;;;;;;2.55;0.10;;;5.60;99.90;;;;;;5031143;28;20044;-64
2023/01/17 11:25:04;;;;;;;1.05;0.10;;;5.70;99.90;;;;;;5012642;28;20341;-62
2023/01/17 11:27:38;;;;;;;2.80;0.28;;;5.60;99.90;;;;;;5013741;28;20041;-63
2023/01/17 11:30:17;;;;;;;1.63;0.10;;;6.00;99.90;;;;;;5031582;28;20438;-63
2023/01/17 11:32:57;;;;;;;2.53;0.10;;;6.30;99.90;;;;;;5013194;28;20410;-63
2023/01/17 11:35:34;;;;;;;1.10;0.10;;;6.70;99.90;;;;;;5013120;28;20060;-64
2023/01/17 11:38:16;;;;;;;0.80;0.10;;;7.00;99.90;;;;;;5031641;28;20314;-64
2023/01/17 11:40:44;;;;;;;0.95;0.10;;;7.10;99.90;;;;;;5013195;28;20123;-64
2023/01/17 11:43:17;;;;;;;4.63;0.15;;;7.40;99.90;;;;;;5030412;28;20065;-64
2023/01/17 11:45:45;;;;;;;3.55;0.10;;;7.50;84.30;;;;;;5030068;28;20037;-64
2023/01/17 11:48:14;;;;;;;2.45;0.10;;;7.80;99.90;;;;;;5013425;28;20076;-63
2023/01/17 11:50:56;;;;;;;2.92;0.10;;;7.20;1.00;;;;;;5012786;28;20045;-63
2023/01/17 11:53:22;;;;;;;2.03;0.10;;;7.70;17.00;;;;;;5030481;28;20055;-63
2023/01/17 11:56:02;;;;;;;2.20;0.10;;;7.90;99.90;;;;;;5013676;28;20045;-64
2023/01/17 11:58:29;;;;;;;3.08;0.10;;;7.60;18.10;;;;;;5012881;28;20521;-63
2023/01/17 12:01:06;;;;;;;3.70;0.50;;;7.80;99.90;;;;;;5030829;28;20337;-63
2023/01/17 12:04:00;;;;;;;2.28;0.32;;;8.00;99.90;;;;;;5030398;28;20040;-63
2023/01/17 12:06:37;;;;;;;5.90;0.30;;;8.00;42.90;;;;;;4996277;28;20040;-63
2023/01/17 12:09:11;;;;;;;4.03;0.40;;;8.20;99.90;;;;;;5030535;28;20615;-63
2023/01/17 12:14:58;;;;;;;2.60;0.28;;;8.30;99.90;;;;;;5013733;28;20507;-63
2023/01/17 12:17:43;;;;;;;4.03;0.10;;;8.50;99.90;;;;;;5035956;28;20049;-63
2023/01/17 12:20:35;;;;;;;2.15;0.10;;;8.70;99.90;;;;;;5016641;28;20048;-62
2023/01/17 12:23:20;;;;;;;5.28;0.20;;;8.50;4.70;;;;;;5017119;28;20925;-63
2023/01/17 12:26:12;;;;;;;3.22;0.20;;;8.60;94.80;;;;;;5034718;28;20044;-63
2023/01/17 12:28:53;;;;;;;3.00;0.30;;;9.00;99.90;;;;;;5012834;28;20045;-63
2023/01/17 12:31:38;;;;;;;2.22;0.20;;;9.00;73.70;;;;;;5033863;28;20138;-64
2023/01/17 12:34:22;;;;;;;2.47;0.47;;;9.00;1.00;;;;;;5014850;28;20111;-64
2023/01/17 12:36:47;;;;;;;2.47;0.20;;;9.00;54.20;;;;;;5015883;28;20091;-64
2023/01/17 12:39:17;;;;;;;5.25;0.35;;;8.80;1.00;;;;;;5010326;28;20115;-64
2023/01/17 12:42:02;;;;;;;4.00;0.40;;;8.80;1.00;;;;;;5015891;28;20048;-64
2023/01/17 12:44:54;;;;;;;3.72;0.20;;;8.90;1.00;;;;;;5016625;28;20089;-63
2023/01/17 12:47:20;;;;;;;3.95;0.38;;;8.60;1.00;;;;;;5015703;28;20039;-63
2023/01/17 12:49:59;;;;;;;4.55;0.28;;;8.50;1.00;;;;;;5016162;28;20048;-64
2023/01/17 12:52:39;;;;;;;3.38;0.20;;;8.40;1.00;;;;;;5015865;28;20097;-63
2023/01/17 12:55:19;;;;;;;3.72;0.25;;;8.50;1.00;;;;;;5013461;28;20045;-63
2023/01/17 12:57:50;;;;;;;4.03;0.30;;;8.00;1.00;;;;;;5035966;28;20119;-64
2023/01/17 13:00:21;;;;;;;4.05;0.45;;;7.80;1.00;;;;;;5036443;28;20033;-64
2023/01/17 13:03:02;;;;;;;4.93;0.30;;;7.80;1.00;;;;;;5036173;28;20545;-64
2023/01/17 13:05:35;;;;;;;4.68;0.30;;;7.60;1.00;;;;;;5035315;28;20037;-64
2023/01/17 13:08:33;;;;;;;4.95;0.28;;;7.60;1.00;;;;;;5042393;28;20136;-64
2023/01/17 13:11:27;;;;;;;3.78;0.30;;;7.50;1.00;;;;;;5017934;28;20056;-64
2023/01/17 13:13:56;;;;;;;2.72;0.30;;;7.50;1.00;;;;;;5017851;28;20124;-62
2023/01/17 13:16:52;;;;;;;4.00;0.50;;;7.80;1.00;;;;;;5014048;28;20253;-62
2023/01/17 13:19:45;;;;;;;2.70;0.35;;;7.30;1.00;;;;;;5018487;28;20217;-63
2023/01/17 13:22:16;;;;;;;4.18;0.32;;;6.30;1.00;;;;;;5036758;28;20044;-64
2023/01/17 13:24:57;;;;;;;7.38;0.30;;;5.80;1.00;;;;;;5018720;28;20050;-63
2023/01/17 13:27:31;;;;;;;2.05;0.20;;;5.60;1.00;;;;;;5034694;28;20080;-64
2023/01/17 13:30:15;;;;;;;3.72;0.20;;;5.60;1.00;;;;;;5014853;28;21505;-64
2023/01/17 13:33:24;;;;;;;6.63;0.30;;;5.50;1.00;;;;;;5034013;28;20056;-64
2023/01/17 13:36:18;;;;;;;3.72;0.40;;;5.50;1.00;;;;;;5001251;28;20071;-63
2023/01/17 13:39:22;;;;;;;3.72;0.30;;;5.30;8.10;;;;;;5018574;28;20558;-63
2023/01/17 13:41:53;;;;;;;5.45;0.30;;;5.10;1.00;;;;;;5036065;28;20386;-63
2023/01/17 13:44:23;;;;;;;5.07;0.20;;;4.90;4.40;;;;;;4991239;28;20036;-64
2023/01/17 13:47:06;;;;;;;3.20;0.30;;;4.70;1.00;;;;;;5017826;28;20045;-64
2023/01/17 13:49:46;;;;;;;3.28;0.40;;;4.50;1.00;;;;;;5017937;28;20048;-64
2023/01/17 13:52:18;;;;;;;3.33;0.50;;;4.40;1.00;;;;;;5001581;28;20045;-64
2023/01/17 13:54:53;;;;;;;3.67;0.20;;;4.70;1.40;;;;;;5018544;28;20636;-64
2023/01/17 13:57:24;;;;;;;3.58;0.30;;;5.10;1.00;;;;;;5036025;28;20044;-64
2023/01/17 13:59:55;;;;;;;4.80;0.30;;;5.40;1.00;;;;;;5000727;28;20098;-63
2023/01/17 14:02:34;;;;;;;2.13;0.32;;;5.90;1.00;;;;;;5001360;28;20076;-65
2023/01/17 14:05:22;;;;;;;2.25;0.30;;;5.80;1.00;;;;;;5017561;28;20128;-63
2023/01/17 14:07:57;;;;;;;2.65;0.28;;;6.10;1.00;;;;;;5015995;28;20102;-64
2023/01/17 14:10:36;;;;;;;4.43;0.20;;;6.70;1.00;;;;;;5034842;28;20060;-62
2023/01/17 14:13:03;;;;;;;6.75;0.45;;;6.80;1.00;;;;;;5036341;28;20079;-64
2023/01/17 14:15:45;;;;;;;3.53;0.30;;;6.60;1.00;;;;;;5018578;28;20053;-63
2023/01/17 14:18:28;;;;;;;3.03;0.20;;;6.80;1.00;;;;;;5017835;28;20249;-62
2023/01/17 14:21:11;;;;;;;2.65;0.20;;;7.10;1.00;;;;;;5017757;28;20052;-63
2023/01/17 14:23:48;;;;;;;1.45;0.20;;;7.00;1.00;;;;;;5035620;28;20033;-63
2023/01/17 14:26:30;;;;;;;3.47;0.25;;;6.70;1.00;;;;;;5035566;28;20037;-63
2023/01/17 14:28:58;;;;;;;2.85;0.20;;;6.10;1.00;;;;;;5007776;28;20051;-64
2023/01/17 14:31:25;;;;;;;3.25;0.40;;;5.70;1.00;;;;;;5035730;28;20045;-63
2023/01/17 14:33:51;;;;;;;4.07;0.30;;;5.40;1.00;;;;;;5016731;28;20664;-63
2023/01/17 14:36:25;;;;;;;2.63;0.20;;;5.30;1.00;;;;;;4999318;28;20045;-63
2023/01/17 14:38:51;;;;;;;5.15;0.50;;;5.20;1.00;;;;;;5034783;28;20576;-64
2023/01/17 14:41:21;;;;;;;3.30;0.20;;;5.20;1.00;;;;;;5012531;28;20189;-63
2023/01/17 14:43:49;;;;;;;6.18;0.30;;;5.10;1.00;;;;;;5012153;28;20033;-63
2023/01/17 14:46:26;;;;;;;4.07;0.20;;;5.00;1.00;;;;;;5034497;28;20500;-63
2023/01/17 14:49:00;;;;;;;4.82;0.43;;;4.80;1.00;;;;;;5033924;28;20385;-65